createdAt,value
2022-10-06T00:01:02.428Z,-27.5
2022-10-06T00:09:07.761Z,-27.4
2022-10-06T00:11:09.612Z,-27.5
2022-10-06T00:13:11.238Z,-27.4
2022-10-06T00:15:12.951Z,-27.4
2022-10-06T00:19:15.760Z,-27.7
2022-10-06T00:21:17.219Z,-27.4
2022-10-06T00:23:18.890Z,-27.5
2022-10-06T00:25:20.327Z,-27.5
2022-10-06T00:27:21.727Z,-27.7
2022-10-06T00:29:22.729Z,-27.6
2022-10-06T00:31:24.555Z,-27.6
2022-10-06T00:33:25.759Z,-27.6
2022-10-06T00:35:26.853Z,-27.6
2022-10-06T00:37:28.132Z,-27.6
2022-10-06T00:41:30.704Z,-27.7
2022-10-06T00:43:32.113Z,-27.5
2022-10-06T00:45:33.936Z,-27.5
2022-10-06T00:47:35.384Z,-27.4
2022-10-06T00:51:37.980Z,-27.4
2022-10-06T00:53:39.571Z,-27.7
2022-10-06T00:55:41.122Z,-27.5
2022-10-06T00:57:42.654Z,-27.5
2022-10-06T00:59:43.747Z,-27.5
2022-10-06T01:01:45.176Z,-27.5
2022-10-06T01:03:47.042Z,-27.7
2022-10-06T01:07:49.403Z,-27.5
2022-10-06T01:09:51.174Z,-27.5
2022-10-06T01:11:52.207Z,-27.5
2022-10-06T01:13:53.848Z,-27.5
2022-10-06T01:15:55.423Z,-27.1
2022-10-06T01:19:58.285Z,-27.3
2022-10-06T01:21:59.862Z,-27.4
2022-10-06T01:24:01.539Z,-27.2
2022-10-06T01:26:03.442Z,-27.6
2022-10-06T01:28:04.516Z,-27.6
2022-10-06T01:30:05.482Z,-27.4
2022-10-06T01:32:06.534Z,-27.5
2022-10-06T01:34:07.610Z,-27.3
2022-10-06T01:40:11.752Z,-27.6
2022-10-06T01:42:13.314Z,-27.7
2022-10-06T01:44:14.605Z,-27.6
2022-10-06T01:46:15.719Z,-27.4
2022-10-06T01:52:19.699Z,-27.4
2022-10-06T01:54:20.871Z,-27.4
2022-10-06T01:56:21.947Z,-27.5
2022-10-06T01:58:23.798Z,-27.5
2022-10-06T02:00:25.425Z,-27.3
2022-10-06T02:02:27.257Z,-27.3
2022-10-06T02:04:29.072Z,-27.2
2022-10-06T02:06:30.510Z,-27.3
2022-10-06T02:08:32.361Z,-27.6
2022-10-06T02:10:33.832Z,-27.5
2022-10-06T02:12:34.930Z,-27.6
2022-10-06T02:14:35.933Z,-27.5
2022-10-06T02:16:37.515Z,-27.6
2022-10-06T02:18:38.826Z,-27.3
2022-10-06T02:20:40.479Z,-27.6
2022-10-06T02:22:41.877Z,-27.3
2022-10-06T02:24:42.777Z,-27.3
2022-10-06T02:26:44.017Z,-27.4
2022-10-06T02:28:45.758Z,-27.2
2022-10-06T02:30:46.888Z,-27.6
2022-10-06T02:32:48.406Z,-27.6
2022-10-06T02:34:50.249Z,-27.6
2022-10-06T02:38:53.167Z,-27.7
2022-10-06T02:40:54.270Z,-27.4
2022-10-06T02:42:55.828Z,-27.4
2022-10-06T02:44:56.835Z,-27.6
2022-10-06T02:49:00.358Z,-27.6
2022-10-06T02:51:02.129Z,-27.6
2022-10-06T02:53:03.876Z,-27.3
2022-10-06T02:55:05.295Z,-27.4
2022-10-06T02:57:06.281Z,-27.3
2022-10-06T02:59:07.380Z,-27.4
2022-10-06T03:01:08.710Z,-27.3
2022-10-06T03:03:09.768Z,-27.5
2022-10-06T03:05:11.370Z,-27.5
2022-10-06T03:07:12.370Z,-27.3
2022-10-06T03:11:14.740Z,-27.5
2022-10-06T03:13:16.478Z,-27.7
2022-10-06T03:15:18.167Z,-27.4
2022-10-06T03:17:19.132Z,-27.6
2022-10-06T03:19:20.843Z,-27.3
2022-10-06T03:21:22.239Z,-27.5
2022-10-06T03:23:23.897Z,-27.3
2022-10-06T03:25:24.814Z,-27.4
2022-10-06T03:27:26.355Z,-27.3
2022-10-06T03:33:30.963Z,-27.3
2022-10-06T03:35:32.677Z,-27.8
2022-10-06T03:37:34.097Z,-27.3
2022-10-06T03:41:36.252Z,-27.3
2022-10-06T03:43:37.418Z,-27.4
2022-10-06T03:47:40.106Z,-27.4
2022-10-06T03:49:41.576Z,-27.3
2022-10-06T03:51:42.687Z,-27.5
2022-10-06T03:53:44.316Z,-27.5
2022-10-06T03:55:45.465Z,-27.5
2022-10-06T03:59:48.400Z,-27.6
2022-10-06T04:03:51.192Z,-27.4
2022-10-06T04:05:52.791Z,-27.2
2022-10-06T04:07:54.692Z,-27.5
2022-10-06T04:09:55.928Z,-27.3
2022-10-06T04:13:58.097Z,-27.3
2022-10-06T04:15:59.288Z,-27.2
2022-10-06T04:18:00.640Z,-27.5
2022-10-06T04:20:02.210Z,-27.4
2022-10-06T04:22:03.912Z,-27.3
2022-10-06T04:24:05.548Z,-27.5
2022-10-06T04:26:06.848Z,-27.4
2022-10-06T04:28:08.756Z,-27.5
2022-10-06T04:30:10.586Z,-27.4
2022-10-06T04:32:11.474Z,-27.7
2022-10-06T04:34:12.544Z,-27.4
2022-10-06T04:36:13.829Z,-27.3
2022-10-06T04:38:15.170Z,-27.4
2022-10-06T04:40:16.451Z,-27.3
2022-10-06T04:42:18.279Z,-27.5
2022-10-06T04:44:19.996Z,-27.5
2022-10-06T04:46:41.938Z,-27.4
2022-10-06T04:48:22.569Z,-27.4
2022-10-06T04:50:24.453Z,-27.2
2022-10-06T04:52:25.557Z,-27.7
2022-10-06T04:54:30.101Z,-27.6
2022-10-06T04:56:28.272Z,-27.5
2022-10-06T04:58:29.580Z,-27.4
2022-10-06T05:02:31.892Z,-27.2
2022-10-06T05:04:33.190Z,-27.6
2022-10-06T05:06:35.003Z,-27.4
2022-10-06T05:08:36.043Z,-27.4
2022-10-06T05:14:40.318Z,-27.7
2022-10-06T05:16:41.386Z,-27.3
2022-10-06T05:18:42.922Z,-27.8
2022-10-06T05:20:44.727Z,-27.4
2022-10-06T05:22:46.367Z,-27.2
2022-10-06T05:25:31.614Z,-27.3
2022-10-06T05:29:34.703Z,-27.5
2022-10-06T05:33:37.202Z,-27.2
2022-10-06T05:35:38.997Z,-27.2
2022-10-06T05:37:40.689Z,-27.5
2022-10-06T05:39:42.365Z,-27.3
2022-10-06T05:41:43.654Z,-27.4
2022-10-06T05:43:44.721Z,-27.3
2022-10-06T05:45:46.134Z,-27.7
2022-10-06T05:51:50.089Z,-27.5
2022-10-06T05:53:51.656Z,-27.4
2022-10-06T05:55:52.692Z,-27.4
2022-10-06T05:57:54.081Z,-27.4
2022-10-06T05:59:55.117Z,-27.3
2022-10-06T06:01:56.912Z,-27.8
2022-10-06T06:05:59.401Z,-27.5
2022-10-06T06:08:00.426Z,-27.4
2022-10-06T06:10:02.256Z,-27.5
2022-10-06T06:12:03.801Z,-27.2
2022-10-06T06:18:07.762Z,-27.4
2022-10-06T06:20:08.647Z,-27.8
2022-10-06T06:22:10.517Z,-27.4
2022-10-06T06:24:11.969Z,-27.6
2022-10-06T06:26:12.901Z,-27.5
2022-10-06T06:28:14.756Z,-27.2
2022-10-06T06:32:17.955Z,-27.5
2022-10-06T06:34:19.782Z,-27.4
2022-10-06T06:36:21.551Z,-27.5
2022-10-06T06:38:22.643Z,-27.3
2022-10-06T06:40:24.042Z,-27.5
2022-10-06T06:42:25.479Z,-27.5
2022-10-06T06:44:26.664Z,-27.5
2022-10-06T06:46:28.332Z,-27.4
2022-10-06T06:48:29.848Z,-27.5
2022-10-06T06:50:30.486Z,-27.6
2022-10-06T06:52:31.909Z,-27.6
2022-10-06T06:54:33.624Z,-27.7
2022-10-06T06:56:35.487Z,-27.3
2022-10-06T07:00:37.519Z,-27.7
2022-10-06T07:02:39.385Z,-27.5
2022-10-06T07:04:40.436Z,-27.4
2022-10-06T07:06:41.469Z,-27.5
2022-10-06T07:08:42.829Z,-27.4
2022-10-06T07:10:44.623Z,-27.7
2022-10-06T07:12:46.222Z,-22
2022-10-06T07:16:49.002Z,-16.1
2022-10-06T07:18:49.976Z,-15.9
2022-10-06T07:20:51.414Z,-22.5
2022-10-06T07:22:52.513Z,-12.1
2022-10-06T07:26:56.117Z,-7.3
2022-10-06T07:33:00.195Z,0.5
2022-10-06T07:35:01.988Z,1.8
2022-10-06T07:37:05.677Z,10.6
2022-10-06T07:39:04.563Z,9.2
2022-10-06T07:41:19.930Z,6.9
2022-10-06T07:43:06.535Z,33.2
2022-10-06T07:45:07.488Z,80.19
2022-10-06T07:47:09.227Z,79.5
2022-10-06T07:49:10.669Z,1.9
2022-10-06T07:53:12.817Z,8.2
2022-10-06T07:57:15.713Z,78.5
2022-10-06T07:59:20.494Z,77.8
2022-10-06T08:03:19.763Z,76.4
2022-10-06T08:05:20.829Z,76
2022-10-06T08:07:21.839Z,75.6
2022-10-06T08:09:23.416Z,74.8
2022-10-06T08:11:24.573Z,74
2022-10-06T08:13:25.705Z,73.4
2022-10-06T08:15:26.837Z,73
2022-10-06T08:17:27.977Z,72.8
2022-10-06T08:19:29.056Z,22
2022-10-06T08:21:30.658Z,72.69
2022-10-06T08:23:32.375Z,70.9
2022-10-06T08:29:37.255Z,-2
2022-10-06T08:31:39.139Z,-15
2022-10-06T08:33:40.213Z,-17
2022-10-06T08:35:41.743Z,-18.4
2022-10-06T08:37:42.813Z,-23.5
2022-10-06T08:39:44.115Z,-24.1
2022-10-06T08:41:45.835Z,-25.7
2022-10-06T08:45:48.854Z,-19.6
2022-10-06T08:47:50.511Z,-4
2022-10-06T08:49:52.572Z,71.19
2022-10-06T08:51:53.604Z,70.19
2022-10-06T08:53:55.061Z,69.6
2022-10-06T08:55:55.890Z,69.1
2022-10-06T08:57:57.210Z,67.1
2022-10-06T09:01:59.209Z,66.19
2022-10-06T09:04:00.224Z,65
2022-10-06T09:06:01.271Z,63.4
2022-10-06T09:08:02.755Z,62.2
2022-10-06T09:10:03.590Z,61.5
2022-10-06T09:12:05.345Z,60.5
2022-10-06T09:14:07.126Z,58.9
2022-10-06T09:16:08.064Z,57.6
2022-10-06T09:18:08.875Z,-25.3
2022-10-06T09:56:35.542Z,23.2
2022-10-06T09:58:36.911Z,22.2
2022-10-06T10:00:38.414Z,17
2022-10-06T10:02:39.329Z,21.4
2022-10-06T10:04:40.503Z,14.5
2022-10-06T10:06:41.710Z,13.1
2022-10-06T10:08:43.431Z,12.7
2022-10-06T10:10:44.254Z,17.2
2022-10-06T10:12:45.174Z,10.2
2022-10-06T10:14:46.125Z,15.5
2022-10-06T10:16:50.950Z,14.9
2022-10-06T10:18:49.064Z,14.5
2022-10-06T10:22:51.312Z,-27.7
2022-10-06T10:26:53.799Z,-27.5
2022-10-06T10:28:55.453Z,-27.8
2022-10-06T10:30:56.996Z,-27.5
2022-10-06T10:32:58.161Z,-27.6
2022-10-06T10:39:02.225Z,-27.9
2022-10-06T10:41:03.766Z,-27.4
2022-10-06T10:43:05.415Z,-27.6
2022-10-06T10:45:06.239Z,-27.6
2022-10-06T10:47:07.895Z,-27.4
2022-10-06T10:49:09.135Z,-27.4
2022-10-06T10:51:10.130Z,-27.7
2022-10-06T10:53:11.499Z,-27.8
2022-10-06T10:55:12.837Z,-27.6
2022-10-06T10:57:14.612Z,-27.5
2022-10-06T10:59:15.654Z,-27.7
2022-10-06T11:05:19.704Z,-27.5
2022-10-06T11:07:20.650Z,-27.5
2022-10-06T11:09:22.099Z,-27.9
2022-10-06T11:11:23.794Z,-27.6
2022-10-06T11:13:25.606Z,-27.6
2022-10-06T11:15:26.765Z,-27.8
2022-10-06T11:17:29.017Z,-27.5
2022-10-06T11:19:29.703Z,-27.5
2022-10-06T11:21:30.937Z,-27.8
2022-10-06T11:23:32.335Z,-27.6
2022-10-06T11:25:34.872Z,-27.8
2022-10-06T11:27:34.334Z,-27.7
2022-10-06T11:29:35.307Z,-27.8
2022-10-06T11:31:36.860Z,-27.5
2022-10-06T11:37:39.939Z,-27.3
2022-10-06T11:39:41.201Z,-27.7
2022-10-06T11:41:42.556Z,-27.7
2022-10-06T11:43:44.242Z,-27.6
2022-10-06T11:45:45.739Z,-27.9
2022-10-06T11:47:46.982Z,-27.8
2022-10-06T11:51:49.780Z,-27.6
2022-10-06T11:53:50.716Z,-27.6
2022-10-06T11:57:54.329Z,-27.7
2022-10-06T12:03:57.778Z,-27.3
2022-10-06T12:05:58.803Z,-27.3
2022-10-06T12:07:59.783Z,-27.8
2022-10-06T12:08:43.457Z,-27.5
2022-10-06T12:17:10.502Z,-27.9
2022-10-06T12:18:50.150Z,-27.6
2022-10-06T12:20:51.299Z,-27.6
2022-10-06T12:22:52.440Z,-27.4
2022-10-06T12:24:54.031Z,-27.4
2022-10-06T12:26:55.417Z,-27.4
2022-10-06T12:30:58.596Z,-27.8
2022-10-06T12:33:00.315Z,-27.6
2022-10-06T12:35:02.210Z,-27.6
2022-10-06T12:37:03.089Z,-27.3
2022-10-06T12:39:04.455Z,-27.6
2022-10-06T12:41:06.578Z,-27.8
2022-10-06T12:45:08.661Z,-27.6
2022-10-06T12:47:10.344Z,-27.5
2022-10-06T12:49:12.108Z,-27.7
2022-10-06T12:51:12.936Z,-27.6
2022-10-06T12:57:17.059Z,-27.7
2022-10-06T12:59:18.409Z,-27.4
2022-10-06T13:01:20.159Z,-27.8
2022-10-06T13:03:21.738Z,-27.6
2022-10-06T13:05:23.103Z,-27.6
2022-10-06T13:07:24.910Z,-27.3
2022-10-06T13:09:26.202Z,-27.6
2022-10-06T13:11:27.451Z,-27.4
2022-10-06T13:13:28.884Z,-27.3
2022-10-06T13:17:32.334Z,-27.5
2022-10-06T13:19:33.863Z,-27.6
2022-10-06T13:21:35.229Z,-27.5
2022-10-06T13:23:36.066Z,-27.4
2022-10-06T13:25:37.629Z,-27.4
2022-10-06T13:27:38.696Z,-27.6
2022-10-06T13:29:39.559Z,-27.6
2022-10-06T13:31:40.670Z,-27.3
2022-10-06T13:33:42.306Z,-27.3
2022-10-06T13:35:43.601Z,-27.7
2022-10-06T13:37:44.936Z,-27.6
2022-10-06T13:39:46.504Z,-27.6
2022-10-06T13:41:47.591Z,-27.4
2022-10-06T13:43:49.883Z,-27.5
2022-10-06T13:45:50.877Z,-27.4
2022-10-06T13:47:51.970Z,-27.4
2022-10-06T13:49:53.173Z,-27.5
2022-10-06T13:55:56.836Z,-27.4
2022-10-06T13:57:58.678Z,-27.4
2022-10-06T13:59:59.780Z,-27.8
2022-10-06T14:02:01.832Z,-27.6
2022-10-06T14:04:02.819Z,-27.6
2022-10-06T14:06:04.518Z,-27.8
2022-10-06T14:10:06.753Z,-27.5
2022-10-06T14:12:07.601Z,-27.5
2022-10-06T14:14:08.669Z,-27.7
2022-10-06T14:16:09.760Z,-27.5
2022-10-06T14:18:10.760Z,-27.7
2022-10-06T14:22:14.081Z,-27.3
2022-10-06T14:26:17.387Z,-27.7
2022-10-06T14:28:18.757Z,-27.2
2022-10-06T14:30:19.701Z,-27.6
2022-10-06T14:32:20.566Z,-27.6
2022-10-06T14:38:24.583Z,-27.5
2022-10-06T14:40:26.014Z,-27.9
2022-10-06T14:42:27.025Z,-27.5
2022-10-06T14:44:28.410Z,-27.5
2022-10-06T14:46:29.637Z,-27.5
2022-10-06T14:48:30.881Z,-27.5
2022-10-06T14:50:32.123Z,-27.4
2022-10-06T14:52:32.933Z,-27.5
2022-10-06T14:54:34.524Z,-27.6
2022-10-06T14:56:36.006Z,-27.7
2022-10-06T14:58:37.484Z,62.4
2022-10-06T15:00:38.520Z,60.5
2022-10-06T15:02:39.770Z,59.2
2022-10-06T15:04:41.152Z,57.5
2022-10-06T15:06:42.748Z,55.8
2022-10-06T15:08:44.508Z,54.3
2022-10-06T15:10:45.436Z,52.3
2022-10-06T15:12:46.987Z,49.9
2022-10-06T15:14:48.076Z,49.4
2022-10-06T15:16:50.295Z,47.6
2022-10-06T15:18:51.782Z,44.2
2022-10-06T15:20:52.840Z,42.4
2022-10-06T15:22:54.496Z,39.9
2022-10-06T15:24:55.503Z,37.2
2022-10-06T15:26:57.071Z,34.09
2022-10-06T15:28:58.399Z,29.3
2022-10-06T15:31:00.200Z,30
2022-10-06T15:37:03.830Z,23.5
2022-10-06T15:39:05.213Z,22.5
2022-10-06T15:41:06.431Z,21.6
2022-10-06T15:43:07.668Z,18.79
2022-10-06T15:45:08.748Z,18.9
2022-10-06T15:47:10.435Z,17.6
2022-10-06T15:51:13.777Z,16.4
2022-10-06T15:53:14.705Z,15.2
2022-10-06T15:55:16.046Z,13.5
2022-10-06T15:57:20.859Z,12.5
2022-10-06T16:03:20.603Z,10.6
2022-10-06T16:05:22.120Z,11.1
2022-10-06T16:07:23.197Z,8.39
2022-10-06T16:09:24.138Z,-27.8
2022-10-06T16:11:25.855Z,-27.6
2022-10-06T16:13:27.125Z,-27.2
2022-10-06T16:15:28.035Z,-27.5
2022-10-06T16:17:29.337Z,-27.6
2022-10-06T16:19:30.583Z,-27.8
2022-10-06T16:21:31.669Z,-27.6
2022-10-06T16:23:33.016Z,-27.6
2022-10-06T16:25:34.448Z,-27.7
2022-10-06T16:27:36.219Z,-27.7
2022-10-06T16:29:37.668Z,-27.8
2022-10-06T16:31:39.445Z,-27.7
2022-10-06T16:33:41.212Z,-27.7
2022-10-06T16:35:42.153Z,-27.5
2022-10-06T16:37:43.406Z,-27.4
2022-10-06T16:39:44.458Z,-27.5
2022-10-06T16:41:45.389Z,-27.5
2022-10-06T16:43:46.988Z,-27.7
2022-10-06T16:45:47.920Z,-27.5
2022-10-06T16:47:49.087Z,-27.8
2022-10-06T16:49:50.820Z,-27.7
2022-10-06T16:51:52.486Z,-27.7
2022-10-06T16:55:54.734Z,-27.5
2022-10-06T16:57:55.655Z,-27.5
2022-10-06T16:59:56.621Z,-27.5
2022-10-06T17:01:58.409Z,-27.6
2022-10-06T17:03:59.906Z,-27.7
2022-10-06T17:06:01.572Z,-27.5
2022-10-06T17:08:03.139Z,-27.6
2022-10-06T17:10:19.927Z,-27.6
2022-10-06T17:12:05.464Z,-27.5
2022-10-06T17:14:06.659Z,-27.6
2022-10-06T17:16:07.726Z,-27.7
2022-10-06T17:18:09.199Z,-27.7
2022-10-06T17:20:10.250Z,-27.9
2022-10-06T17:22:11.507Z,-27.6
2022-10-06T17:24:13.341Z,-27.7
2022-10-06T17:26:15.265Z,-27.5
2022-10-06T17:28:17.061Z,-27.4
2022-10-06T17:30:18.866Z,-27.8
2022-10-06T17:32:19.950Z,-27.7
2022-10-06T17:34:22.348Z,-27.7
2022-10-06T17:38:24.322Z,-27.4
2022-10-06T17:40:26.182Z,-27.8
2022-10-06T17:42:27.905Z,-27.5
2022-10-06T17:44:29.547Z,-27.8
2022-10-06T17:48:32.799Z,-27.8
2022-10-06T17:50:34.715Z,-27.8
2022-10-06T17:52:35.892Z,-27.6
2022-10-06T17:54:36.805Z,-27.7
2022-10-06T18:00:40.733Z,-27.5
2022-10-06T18:02:42.675Z,-27.6
2022-10-06T18:04:43.567Z,-28
2022-10-06T18:06:45.167Z,-27.9
2022-10-06T18:08:46.132Z,-27.8
2022-10-06T18:10:47.946Z,-28.2
2022-10-06T18:12:49.314Z,-28
2022-10-06T18:14:50.505Z,-28.2
2022-10-06T18:16:55.779Z,-28
2022-10-06T18:18:53.393Z,-27.8
2022-10-06T18:20:54.494Z,-28.1
2022-10-06T18:22:56.235Z,-27.9
2022-10-06T18:24:59.311Z,-27.9
2022-10-06T18:26:59.715Z,-28
2022-10-06T18:29:00.799Z,-28
2022-10-06T18:31:02.096Z,-28.3
2022-10-06T18:37:06.699Z,-27.6
2022-10-06T18:39:08.346Z,-27.7
2022-10-06T18:41:09.471Z,-27.8
2022-10-06T18:43:11.265Z,-27.8
2022-10-06T18:45:13.030Z,-28
2022-10-06T18:47:14.435Z,-28
2022-10-06T18:49:15.443Z,-27.8
2022-10-06T18:51:17.225Z,-27.8
2022-10-06T18:53:18.189Z,-27.6
2022-10-06T18:54:02.052Z,-27.4
2022-10-06T18:58:04.119Z,-27.7
2022-10-06T19:00:05.340Z,-27.7
2022-10-06T19:02:06.729Z,-27.8
2022-10-06T19:04:08.448Z,-27.7
2022-10-06T19:06:09.743Z,-27.4
2022-10-06T19:08:10.984Z,-27.9
2022-10-06T19:10:12.327Z,-27.7
2022-10-06T19:12:14.162Z,-27.6
2022-10-06T19:14:15.302Z,-27.7
2022-10-06T19:16:16.306Z,-27.8
2022-10-06T19:18:17.420Z,-27.5
2022-10-06T19:20:18.836Z,-27.5
2022-10-06T19:22:19.836Z,-27.6
2022-10-06T19:24:20.817Z,-27.5
2022-10-06T19:26:22.423Z,-27.6
2022-10-06T19:28:23.710Z,-27.6
2022-10-06T19:30:24.708Z,-27.3
2022-10-06T19:36:29.454Z,-27.4
2022-10-06T19:38:30.926Z,-27.4
2022-10-06T19:40:32.540Z,-27.3
2022-10-06T19:42:33.872Z,-27.5
2022-10-06T19:44:38.290Z,-27.6
2022-10-06T19:46:37.304Z,-27.4
2022-10-06T19:48:39.180Z,-27.6
2022-10-06T19:50:40.428Z,-27.2
2022-10-06T19:52:41.665Z,-27.4
2022-10-06T19:54:43.140Z,-27.4
2022-10-06T19:56:44.816Z,-27.2
2022-10-06T19:58:46.287Z,-27.8
2022-10-06T20:00:47.292Z,-27.5
2022-10-06T20:02:48.785Z,-27.5
2022-10-06T20:08:53.527Z,-27.4
2022-10-06T20:10:54.622Z,-27.3
2022-10-06T20:12:55.969Z,-27.5
2022-10-06T20:14:57.780Z,-27.7
2022-10-06T20:16:58.901Z,-27.5
2022-10-06T20:19:00.257Z,-26.6
2022-10-06T20:21:01.402Z,-27.3
2022-10-06T20:23:02.464Z,-27.4
2022-10-06T20:25:04.344Z,-27.5
2022-10-06T20:27:05.533Z,-27.6
2022-10-06T20:29:07.488Z,-27.3
2022-10-06T20:31:08.645Z,-27.4
2022-10-06T20:33:10.137Z,-27.3
2022-10-06T20:35:11.107Z,-27.4
2022-10-06T20:37:12.126Z,-27.6
2022-10-06T20:39:13.075Z,-27.5
2022-10-06T20:41:14.530Z,-27.5
2022-10-06T20:45:17.414Z,-27.4
2022-10-06T20:47:18.565Z,-27.5
2022-10-06T20:49:19.915Z,-27.3
2022-10-06T20:51:24.254Z,-27.5
2022-10-06T20:53:23.098Z,-27.4
2022-10-06T20:55:24.823Z,-27.5
2022-10-06T20:57:29.091Z,-27.5
2022-10-06T20:59:28.045Z,-27.3
2022-10-06T21:01:29.207Z,-27.4
2022-10-06T21:03:30.744Z,-27.3
2022-10-06T21:05:32.398Z,-27.4
2022-10-06T21:07:33.630Z,-27.6
2022-10-06T21:09:35.370Z,-27.3
2022-10-06T21:11:36.821Z,-27.4
2022-10-06T21:13:38.575Z,-27.7
2022-10-06T21:15:39.784Z,-27.4
2022-10-06T21:17:41.737Z,-27.7
2022-10-06T21:19:42.836Z,-27.6
2022-10-06T21:21:44.201Z,-27.5
2022-10-06T21:25:47.387Z,-27.6
2022-10-06T21:27:48.498Z,-27.7
2022-10-06T21:31:51.358Z,-27.3
2022-10-06T21:33:52.642Z,-27.5
2022-10-06T21:37:56.175Z,-27.6
2022-10-06T21:40:02.103Z,-27.4
2022-10-06T21:41:59.440Z,-27.5
2022-10-06T21:44:01.028Z,-27.2
2022-10-06T21:46:24.238Z,-27.3
2022-10-06T21:48:03.945Z,-27.4
2022-10-06T21:50:05.012Z,-27.4
2022-10-06T21:54:08.158Z,-27.4
2022-10-06T21:58:11.196Z,-27.5
2022-10-06T22:00:13.091Z,-27.3
2022-10-06T22:02:14.082Z,-27.2
2022-10-06T22:04:15.891Z,-27.6
2022-10-06T22:06:19.245Z,-27.4
2022-10-06T22:08:19.012Z,-27.4
2022-10-06T22:12:22.172Z,-27.3
2022-10-06T22:14:24.003Z,-27.3
2022-10-06T22:16:25.751Z,-27.4
2022-10-06T22:18:27.560Z,-27.4
2022-10-06T22:20:29.113Z,-27.4
2022-10-06T22:22:30.419Z,-27.3
2022-10-06T22:26:32.996Z,-27.3
2022-10-06T22:28:34.608Z,-27.4
2022-10-06T22:30:36.274Z,-27.6
2022-10-06T22:32:37.970Z,-27.2
2022-10-06T22:34:39.436Z,-27.4
2022-10-06T22:36:40.686Z,-27.6
2022-10-06T22:38:42.301Z,-27.4
2022-10-06T22:40:44.003Z,-27.6
2022-10-06T22:44:46.692Z,-27.4
2022-10-06T22:52:52.823Z,-27.4
2022-10-06T22:54:54.414Z,-27.5
2022-10-06T22:58:57.511Z,-27.5
2022-10-06T23:02:59.994Z,-27.4
2022-10-06T23:05:01.367Z,-27.5
2022-10-06T23:07:03.266Z,-27.5
2022-10-06T23:09:04.679Z,-27.4
2022-10-06T23:13:08.538Z,-27.4
2022-10-06T23:15:10.496Z,-27.3
2022-10-06T23:17:12.296Z,-27.4
2022-10-06T23:19:14.234Z,-27.4
2022-10-06T23:21:15.676Z,-27.3
2022-10-06T23:23:17.518Z,-27.5
2022-10-06T23:25:21.643Z,-27.5
2022-10-06T23:27:20.940Z,-27.1
2022-10-06T23:29:22.280Z,-27.4
2022-10-06T23:31:23.776Z,-27.6
2022-10-06T23:33:25.577Z,-27.4
2022-10-06T23:35:27.469Z,-27.6
2022-10-06T23:37:29.011Z,-27.7
2022-10-06T23:41:31.877Z,-27.5
2022-10-06T23:45:35.433Z,-27.4
2022-10-06T23:47:36.696Z,-27.4
2022-10-06T23:49:37.856Z,-27.6
2022-10-06T23:51:39.184Z,-27.6
2022-10-06T23:55:42.930Z,-27.5
2022-10-06T23:57:44.528Z,-27.4
2022-10-06T23:59:46.208Z,-27.3
